Time;durP1;ratioP1;P1;durP2;ratioP2;P2;SDS_P1;SDS_P2;PMS_P1;PMS_P2;Temp;Humidity;BMP_temperature;BMP_pressure;BME280_temperature;BME280_humidity;BME280_pressure;Samples;Min_cycle;Max_cycle;Signal;HPM_P1;HPM_P2
2023/07/17 00:00:24;;;;;;;8.27;2.83;;;21.80;82.80;;;;;;5050896;28;20169;-70
2023/07/17 00:02:50;;;;;;;7.40;2.92;;;21.80;82.90;;;;;;5049622;28;20064;-70
2023/07/17 00:05:16;;;;;;;7.55;2.80;;;21.80;83.30;;;;;;5051149;28;20025;-71
2023/07/17 00:07:42;;;;;;;4.60;2.75;;;21.70;83.90;;;;;;5050690;28;20032;-70
2023/07/17 00:10:09;;;;;;;7.10;2.53;;;21.80;83.50;;;;;;5050538;28;20112;-71
2023/07/17 00:12:35;;;;;;;6.60;2.70;;;21.70;82.70;;;;;;5050570;28;20040;-70
2023/07/17 00:15:05;;;;;;;6.28;3.08;;;21.70;82.20;;;;;;5050629;28;20342;-71
2023/07/17 00:17:31;;;;;;;6.10;2.45;;;21.70;82.20;;;;;;5051006;28;20288;-69
2023/07/17 00:19:57;;;;;;;7.70;2.95;;;21.70;80.50;;;;;;5050701;28;20033;-70
2023/07/17 00:22:24;;;;;;;5.97;3.00;;;21.70;82.40;;;;;;5050516;28;20030;-70
2023/07/17 00:24:53;;;;;;;7.03;3.90;;;21.70;83.20;;;;;;5050249;28;20087;-71
2023/07/17 00:27:19;;;;;;;5.72;3.20;;;21.70;83.20;;;;;;5050364;28;20029;-71
2023/07/17 00:29:45;;;;;;;5.55;2.58;;;21.60;83.10;;;;;;5050535;28;20021;-70
2023/07/17 00:32:12;;;;;;;6.93;2.67;;;21.60;82.10;;;;;;5050653;28;20021;-71
2023/07/17 00:34:38;;;;;;;5.80;2.60;;;21.60;80.20;;;;;;5049995;28;20041;-70
2023/07/17 00:37:04;;;;;;;4.35;2.63;;;21.70;80.20;;;;;;5050267;28;20033;-71
2023/07/17 00:39:30;;;;;;;8.20;3.25;;;21.80;79.40;;;;;;5050117;28;20352;-69
2023/07/17 00:41:55;;;;;;;5.20;2.65;;;21.70;78.40;;;;;;5050042;28;20033;-70
2023/07/17 00:44:21;;;;;;;6.47;2.78;;;21.70;78.40;;;;;;5050970;28;20359;-70
2023/07/17 00:46:48;;;;;;;4.50;2.78;;;21.70;78.00;;;;;;5050235;28;20108;-71
2023/07/17 00:49:14;;;;;;;5.40;2.67;;;21.70;78.70;;;;;;5050646;28;20047;-69
2023/07/17 00:51:41;;;;;;;5.20;2.60;;;21.70;78.80;;;;;;5050243;28;20029;-70
2023/07/17 00:54:08;;;;;;;10.15;3.00;;;21.60;78.70;;;;;;5082716;28;20031;-70
2023/07/17 00:56:34;;;;;;;5.95;2.40;;;21.60;78.50;;;;;;5050635;28;20093;-69
2023/07/17 00:59:01;;;;;;;5.93;2.53;;;21.70;78.60;;;;;;5049485;28;20100;-69
2023/07/17 01:01:27;;;;;;;6.22;2.78;;;21.60;78.60;;;;;;5050068;28;20025;-70
2023/07/17 01:03:57;;;;;;;8.90;2.72;;;21.70;78.90;;;;;;5049990;28;20029;-70
2023/07/17 01:06:26;;;;;;;7.45;2.50;;;21.60;79.00;;;;;;5082278;28;20154;-70
2023/07/17 01:08:52;;;;;;;7.03;2.70;;;21.60;79.10;;;;;;5050054;28;20099;-70
2023/07/17 01:11:18;;;;;;;6.53;2.60;;;21.60;79.30;;;;;;5050389;28;20104;-70
2023/07/17 01:13:45;;;;;;;11.60;3.25;;;21.60;79.40;;;;;;5049972;28;20052;-69
2023/07/17 01:16:12;;;;;;;5.43;2.85;;;21.70;79.10;;;;;;5049796;28;20272;-70
2023/07/17 01:18:37;;;;;;;6.32;2.83;;;21.70;79.40;;;;;;5049882;28;20033;-69
2023/07/17 01:21:06;;;;;;;6.53;2.88;;;21.70;79.60;;;;;;5049853;28;20114;-69
2023/07/17 01:23:32;;;;;;;4.50;2.45;;;21.60;79.60;;;;;;5050050;28;20025;-70
2023/07/17 01:25:58;;;;;;;8.63;2.80;;;21.70;79.60;;;;;;5049803;28;20064;-69
2023/07/17 01:28:24;;;;;;;7.38;2.70;;;21.60;80.70;;;;;;5049671;28;20036;-70
2023/07/17 01:30:53;;;;;;;6.93;3.00;;;21.60;81.30;;;;;;5049627;28;20320;-70
2023/07/17 01:33:18;;;;;;;5.35;2.60;;;21.60;81.90;;;;;;5049303;28;20511;-69
2023/07/17 01:35:44;;;;;;;7.60;2.50;;;21.60;82.30;;;;;;5057289;28;20116;-71
2023/07/17 01:38:10;;;;;;;7.13;2.63;;;21.60;82.00;;;;;;5070049;28;20091;-70
2023/07/17 01:40:36;;;;;;;7.47;2.65;;;21.70;81.00;;;;;;5068501;28;20162;-70
2023/07/17 01:43:02;;;;;;;7.43;2.60;;;21.60;82.90;;;;;;5068517;28;20028;-70
2023/07/17 01:45:27;;;;;;;6.40;2.92;;;21.60;83.50;;;;;;5069488;28;20112;-70
2023/07/17 01:47:53;;;;;;;7.00;2.70;;;21.50;84.10;;;;;;5068638;28;20016;-70
2023/07/17 01:50:18;;;;;;;4.00;2.40;;;21.50;84.60;;;;;;5070342;28;20028;-68
2023/07/17 01:52:44;;;;;;;8.25;3.25;;;21.50;84.60;;;;;;5069509;28;20056;-68
2023/07/17 01:55:10;;;;;;;7.45;3.00;;;21.40;84.80;;;;;;5069728;28;20043;-70
2023/07/17 01:57:35;;;;;;;8.25;3.47;;;21.40;85.30;;;;;;5069572;28;20056;-70
2023/07/17 02:00:02;;;;;;;7.07;2.70;;;21.40;85.20;;;;;;5069637;28;20090;-70
2023/07/17 02:02:27;;;;;;;7.32;2.80;;;21.30;85.30;;;;;;5069947;28;20029;-70
2023/07/17 02:04:53;;;;;;;6.40;2.60;;;21.30;85.40;;;;;;5069540;28;20039;-70
2023/07/17 02:07:19;;;;;;;5.05;2.45;;;21.20;85.10;;;;;;5069397;28;20131;-69
2023/07/17 02:09:44;;;;;;;7.10;2.55;;;21.10;85.50;;;;;;5071489;28;20041;-70
2023/07/17 02:12:10;;;;;;;6.93;2.97;;;21.10;85.70;;;;;;5073076;28;20025;-71
2023/07/17 02:14:35;;;;;;;9.55;2.30;;;21.00;86.20;;;;;;5072932;28;20072;-70
2023/07/17 02:17:01;;;;;;;8.45;2.40;;;21.00;86.10;;;;;;5073439;28;20025;-71
2023/07/17 02:19:27;;;;;;;6.65;2.85;;;20.90;85.50;;;;;;5072930;28;20032;-70
2023/07/17 02:21:53;;;;;;;7.93;3.47;;;20.90;86.30;;;;;;5072867;28;20343;-71
2023/07/17 02:24:19;;;;;;;5.85;2.78;;;20.90;85.80;;;;;;5072982;28;20044;-71
2023/07/17 02:26:44;;;;;;;5.07;3.05;;;20.90;85.70;;;;;;5072784;28;20336;-72
2023/07/17 02:29:10;;;;;;;5.85;2.75;;;20.80;86.30;;;;;;5073538;28;20086;-71
2023/07/17 02:31:35;;;;;;;3.88;2.40;;;20.80;86.40;;;;;;5071489;28;20395;-71
2023/07/17 02:34:01;;;;;;;6.07;2.55;;;20.80;86.80;;;;;;5072539;28;20053;-71
2023/07/17 02:36:28;;;;;;;6.60;3.05;;;20.80;87.10;;;;;;5072752;28;20025;-70
2023/07/17 02:38:53;;;;;;;9.38;3.30;;;20.70;87.90;;;;;;5072968;28;20035;-71
2023/07/17 02:41:19;;;;;;;7.50;2.72;;;20.70;87.10;;;;;;5073219;28;20017;-70
2023/07/17 02:43:45;;;;;;;6.93;2.78;;;20.70;86.80;;;;;;5072553;28;20028;-70
2023/07/17 02:46:10;;;;;;;4.45;2.80;;;20.70;87.30;;;;;;5071357;28;20021;-70
2023/07/17 02:48:36;;;;;;;5.00;2.30;;;20.60;87.80;;;;;;5072398;28;20024;-70
2023/07/17 02:51:01;;;;;;;9.35;3.42;;;20.60;88.50;;;;;;5072474;28;20166;-70
2023/07/17 02:53:27;;;;;;;8.00;3.17;;;20.60;89.20;;;;;;5073103;28;20035;-70
2023/07/17 02:55:53;;;;;;;7.43;3.08;;;20.60;89.50;;;;;;5072325;28;20032;-70
2023/07/17 02:58:21;;;;;;;9.30;3.40;;;20.50;89.60;;;;;;5072113;28;20105;-69
2023/07/17 03:00:46;;;;;;;10.20;3.10;;;20.50;90.00;;;;;;5072231;28;20037;-70
2023/07/17 03:03:12;;;;;;;6.30;3.30;;;20.50;89.40;;;;;;5071999;28;20055;-70
2023/07/17 03:05:37;;;;;;;9.43;3.83;;;20.60;89.90;;;;;;5071976;28;20383;-69
2023/07/17 03:08:03;;;;;;;7.45;3.17;;;20.50;90.00;;;;;;5072564;28;20028;-69
2023/07/17 03:10:29;;;;;;;6.40;3.17;;;20.60;90.00;;;;;;5072042;28;20405;-70
2023/07/17 03:12:55;;;;;;;8.95;2.90;;;20.60;89.70;;;;;;5072177;28;20024;-70
2023/07/17 03:15:21;;;;;;;6.80;3.30;;;20.60;90.00;;;;;;5071926;28;20033;-70
2023/07/17 03:17:46;;;;;;;5.78;3.13;;;20.60;89.90;;;;;;5072106;28;20466;-70
2023/07/17 03:20:13;;;;;;;6.13;3.15;;;20.60;89.30;;;;;;5071814;28;20024;-69
2023/07/17 03:22:39;;;;;;;6.60;3.13;;;20.60;88.70;;;;;;5071464;28;20040;-70
2023/07/17 03:25:06;;;;;;;9.23;3.05;;;20.60;89.20;;;;;;5070573;28;20035;-69
2023/07/17 03:27:33;;;;;;;7.05;3.13;;;20.60;89.00;;;;;;5072214;28;20025;-70
2023/07/17 03:29:58;;;;;;;9.35;3.33;;;20.60;88.90;;;;;;5072139;28;20048;-70
2023/07/17 03:32:24;;;;;;;9.52;3.35;;;20.60;90.00;;;;;;5071144;28;20071;-70
2023/07/17 03:34:49;;;;;;;8.00;3.75;;;20.60;89.90;;;;;;5071329;28;20045;-70
2023/07/17 03:37:15;;;;;;;6.70;3.70;;;20.60;87.70;;;;;;5071390;28;20039;-69
2023/07/17 03:39:41;;;;;;;6.47;3.63;;;20.60;87.50;;;;;;5070534;28;20044;-69
2023/07/17 03:42:10;;;;;;;9.15;3.60;;;20.40;87.70;;;;;;5071382;28;20126;-70
2023/07/17 03:44:39;;;;;;;7.68;3.58;;;20.40;88.00;;;;;;5071372;28;20093;-69
2023/07/17 03:47:08;;;;;;;7.70;3.70;;;20.40;88.40;;;;;;5071743;28;20505;-69
2023/07/17 03:49:35;;;;;;;7.55;3.38;;;20.40;88.40;;;;;;5071156;28;20044;-71
2023/07/17 03:52:01;;;;;;;6.72;3.53;;;20.50;88.20;;;;;;5071379;28;20505;-71
2023/07/17 03:54:27;;;;;;;9.13;3.38;;;20.50;88.60;;;;;;5071472;28;20056;-71
2023/07/17 03:56:53;;;;;;;6.07;3.15;;;20.60;88.50;;;;;;5071428;28;20063;-70
2023/07/17 03:59:24;;;;;;;7.97;3.25;;;20.40;89.10;;;;;;5071440;28;20027;-70
2023/07/17 04:01:50;;;;;;;5.03;2.75;;;20.40;89.20;;;;;;5071257;28;20055;-69
2023/07/17 04:04:16;;;;;;;6.63;3.03;;;20.50;89.10;;;;;;5071079;28;20021;-69
2023/07/17 04:06:42;;;;;;;6.55;2.70;;;20.50;89.40;;;;;;5069874;28;20028;-70
2023/07/17 04:09:07;;;;;;;10.13;2.92;;;20.50;89.40;;;;;;5069670;28;20028;-70
2023/07/17 04:11:33;;;;;;;6.95;3.20;;;20.50;89.40;;;;;;5071332;28;20025;-71
2023/07/17 04:13:59;;;;;;;10.15;3.28;;;20.50;89.50;;;;;;5070893;28;20225;-70
2023/07/17 04:16:26;;;;;;;6.05;2.70;;;20.50;89.80;;;;;;5070659;28;20123;-70
2023/07/17 04:18:52;;;;;;;6.45;2.92;;;20.50;89.80;;;;;;5070779;28;20085;-70
2023/07/17 04:21:18;;;;;;;8.55;3.38;;;20.50;89.90;;;;;;5070474;28;20032;-70
2023/07/17 04:23:48;;;;;;;9.05;2.67;;;20.60;90.10;;;;;;5070449;28;20431;-69
2023/07/17 04:26:14;;;;;;;6.10;2.97;;;20.40;90.30;;;;;;5070934;28;20016;-70
2023/07/17 04:28:40;;;;;;;7.45;3.17;;;20.30;90.60;;;;;;5070621;28;20036;-69
2023/07/17 04:31:06;;;;;;;7.70;3.35;;;20.30;90.50;;;;;;5070470;28;20393;-69
2023/07/17 04:33:32;;;;;;;6.75;3.08;;;20.40;90.60;;;;;;5070260;28;20041;-70
2023/07/17 04:35:58;;;;;;;8.02;3.00;;;20.40;90.80;;;;;;5070400;28;20040;-70
2023/07/17 04:38:24;;;;;;;5.35;3.20;;;20.40;90.90;;;;;;5070871;28;20032;-71
2023/07/17 04:40:50;;;;;;;9.65;3.55;;;20.40;90.90;;;;;;5070617;28;20035;-70
2023/07/17 04:43:15;;;;;;;9.50;3.13;;;20.40;91.00;;;;;;5070593;28;20036;-69
2023/07/17 04:45:42;;;;;;;6.65;3.38;;;20.40;91.00;;;;;;5070228;28;20032;-69
2023/07/17 04:48:08;;;;;;;7.70;3.35;;;20.50;91.80;;;;;;5070261;28;20485;-69
2023/07/17 04:50:34;;;;;;;9.90;3.67;;;20.50;92.10;;;;;;5069420;28;20028;-69
2023/07/17 04:52:59;;;;;;;11.77;3.90;;;20.50;92.30;;;;;;5070017;28;20046;-69
2023/07/17 04:55:25;;;;;;;9.13;3.42;;;20.40;92.50;;;;;;5069905;28;20036;-71
2023/07/17 04:57:51;;;;;;;7.53;3.63;;;20.50;92.20;;;;;;5070041;28;20059;-69
2023/07/17 05:00:16;;;;;;;8.93;3.97;;;20.40;91.90;;;;;;5069773;28;20025;-70
2023/07/17 05:02:42;;;;;;;9.57;3.85;;;20.50;92.00;;;;;;5068934;28;20036;-69
2023/07/17 05:05:09;;;;;;;7.60;3.40;;;20.50;92.10;;;;;;5070855;28;20018;-70
2023/07/17 05:07:35;;;;;;;9.48;3.83;;;20.40;91.80;;;;;;5069936;28;20143;-70
2023/07/17 05:10:00;;;;;;;6.43;3.03;;;20.40;92.00;;;;;;5070067;28;20104;-70
2023/07/17 05:12:26;;;;;;;8.07;3.30;;;20.40;91.70;;;;;;5070109;28;20036;-70
2023/07/17 05:14:51;;;;;;;13.20;4.30;;;20.50;91.10;;;;;;5068781;28;20029;-70
2023/07/17 05:17:17;;;;;;;7.72;2.90;;;20.50;91.20;;;;;;5070249;28;20025;-69
2023/07/17 05:19:43;;;;;;;5.40;2.83;;;20.40;91.20;;;;;;5069928;28;20035;-70
2023/07/17 05:22:08;;;;;;;9.55;3.40;;;20.40;91.00;;;;;;5069850;28;20028;-71
2023/07/17 05:24:34;;;;;;;10.20;3.22;;;20.60;91.00;;;;;;5069725;28;20064;-70
2023/07/17 05:26:59;;;;;;;6.57;3.33;;;20.50;90.80;;;;;;5070001;28;20028;-70
2023/07/17 05:29:25;;;;;;;5.53;3.13;;;20.60;90.80;;;;;;5070234;28;20447;-69
2023/07/17 05:31:51;;;;;;;8.85;4.38;;;20.60;90.70;;;;;;5070178;28;20040;-70
2023/07/17 05:34:17;;;;;;;9.88;2.90;;;20.70;90.70;;;;;;5069555;28;20079;-71
2023/07/17 05:36:43;;;;;;;4.63;2.55;;;20.70;90.60;;;;;;5069925;28;20039;-69
2023/07/17 05:39:08;;;;;;;6.38;2.60;;;20.70;90.60;;;;;;5069628;28;20028;-70
2023/07/17 05:41:34;;;;;;;8.27;3.35;;;20.60;90.50;;;;;;5069926;28;20032;-69
2023/07/17 05:43:59;;;;;;;5.65;2.92;;;20.60;90.40;;;;;;5070629;28;20086;-70
2023/07/17 05:46:25;;;;;;;6.18;3.03;;;20.60;90.50;;;;;;5072266;28;20028;-71
2023/07/17 05:48:51;;;;;;;7.85;3.10;;;20.40;90.70;;;;;;5073467;28;20108;-69
2023/07/17 05:51:16;;;;;;;5.97;3.38;;;20.50;90.80;;;;;;5072296;28;20024;-69
2023/07/17 05:53:42;;;;;;;13.65;3.90;;;20.60;90.80;;;;;;5073411;28;20052;-68
2023/07/17 05:56:07;;;;;;;7.70;2.78;;;20.60;90.70;;;;;;5050111;28;20052;-71
2023/07/17 05:58:33;;;;;;;10.43;2.88;;;20.70;90.60;;;;;;5033407;28;20040;-70
2023/07/17 06:00:59;;;;;;;5.95;2.60;;;20.60;90.80;;;;;;5033465;28;20372;-71
2023/07/17 06:03:25;;;;;;;4.80;2.78;;;20.60;90.70;;;;;;5033297;28;20032;-69
2023/07/17 06:05:51;;;;;;;4.88;2.80;;;20.70;90.80;;;;;;5033459;28;20022;-71
2023/07/17 06:08:17;;;;;;;7.28;2.65;;;20.50;91.00;;;;;;5032551;28;20032;-71
2023/07/17 06:10:43;;;;;;;5.85;2.63;;;20.40;91.00;;;;;;5049069;28;20038;-72
2023/07/17 06:13:09;;;;;;;5.65;3.03;;;20.60;91.10;;;;;;5033318;28;20091;-72
2023/07/17 06:15:34;;;;;;;7.70;2.88;;;20.50;91.00;;;;;;5033113;28;20037;-70
2023/07/17 06:18:00;;;;;;;8.23;2.80;;;20.50;91.00;;;;;;5033309;28;20032;-70
2023/07/17 06:20:26;;;;;;;5.88;2.83;;;20.50;91.00;;;;;;5033448;28;20033;-70
2023/07/17 06:22:51;;;;;;;7.18;2.70;;;20.50;91.00;;;;;;5033002;28;20056;-71
2023/07/17 06:25:17;;;;;;;4.25;2.20;;;20.40;90.90;;;;;;5032945;28;20033;-71
2023/07/17 06:27:43;;;;;;;5.97;2.63;;;20.30;90.90;;;;;;5031759;28;20032;-69
2023/07/17 06:30:10;;;;;;;6.85;2.50;;;20.40;90.80;;;;;;5032686;28;20478;-71
2023/07/17 06:32:36;;;;;;;7.40;2.73;;;20.50;90.90;;;;;;5032606;28;20018;-70
2023/07/17 06:35:02;;;;;;;6.97;2.83;;;20.40;90.80;;;;;;5031744;28;20050;-70
2023/07/17 06:37:27;;;;;;;10.02;2.90;;;20.40;90.80;;;;;;5032708;28;20087;-70
2023/07/17 06:39:53;;;;;;;5.43;2.38;;;20.40;90.90;;;;;;5032811;28;20075;-71
2023/07/17 06:42:18;;;;;;;6.40;2.90;;;20.30;90.90;;;;;;5032867;28;20542;-71
2023/07/17 06:44:44;;;;;;;8.32;2.63;;;20.40;90.90;;;;;;5032202;28;20029;-71
2023/07/17 06:47:10;;;;;;;9.90;2.55;;;20.40;90.80;;;;;;5032768;28;20053;-68
2023/07/17 06:49:35;;;;;;;8.15;2.63;;;20.40;90.90;;;;;;5032260;28;20125;-70
2023/07/17 06:52:01;;;;;;;7.70;2.72;;;20.40;90.90;;;;;;5047690;28;20033;-70
2023/07/17 06:54:27;;;;;;;10.40;3.13;;;20.50;90.90;;;;;;5032281;28;20112;-71
2023/07/17 06:56:52;;;;;;;7.15;2.60;;;20.60;90.90;;;;;;5030731;28;20083;-72
2023/07/17 06:59:18;;;;;;;6.88;2.40;;;20.60;90.80;;;;;;5032829;28;20025;-70
2023/07/17 07:01:44;;;;;;;6.07;2.13;;;20.70;90.80;;;;;;5032087;28;20038;-71
2023/07/17 07:04:09;;;;;;;7.15;2.38;;;20.80;90.90;;;;;;5031915;28;20103;-71
2023/07/17 07:06:35;;;;;;;16.30;8.68;;;20.80;90.80;;;;;;5031934;28;20116;-71
2023/07/17 07:09:00;;;;;;;9.27;4.28;;;21.00;90.70;;;;;;5032131;28;20072;-71
2023/07/17 07:11:26;;;;;;;10.23;4.15;;;20.90;90.60;;;;;;5032280;28;20431;-71
2023/07/17 07:13:52;;;;;;;7.03;3.40;;;20.90;90.60;;;;;;5032256;28;20098;-69
2023/07/17 07:16:18;;;;;;;5.78;2.38;;;21.10;90.60;;;;;;5031775;28;20042;-72
2023/07/17 07:18:44;;;;;;;6.75;2.88;;;21.10;90.60;;;;;;5031871;28;20130;-70
2023/07/17 07:21:09;;;;;;;8.30;2.85;;;21.20;90.50;;;;;;5031678;28;20029;-72
2023/07/17 07:23:35;;;;;;;6.53;2.50;;;21.20;90.40;;;;;;5031675;28;20301;-71
2023/07/17 07:26:01;;;;;;;5.40;2.20;;;21.20;90.20;;;;;;5032159;28;20049;-71
2023/07/17 07:28:26;;;;;;;6.22;2.60;;;21.30;90.40;;;;;;5047628;28;20029;-73
2023/07/17 07:30:58;;;;;;;5.25;2.25;;;21.30;90.30;;;;;;5052478;28;20029;-69
2023/07/17 07:33:24;;;;;;;6.43;2.60;;;21.30;90.40;;;;;;5052338;28;20052;-69
2023/07/17 07:35:50;;;;;;;2.88;1.92;;;21.30;90.10;;;;;;5052559;28;20443;-74
2023/07/17 07:38:15;;;;;;;6.35;3.40;;;21.40;90.10;;;;;;5052711;28;20024;-75
2023/07/17 07:40:41;;;;;;;7.30;2.22;;;21.60;89.90;;;;;;5052235;28;20029;-76
2023/07/17 07:43:07;;;;;;;5.63;2.03;;;21.60;89.30;;;;;;5051703;28;20072;-71
2023/07/17 07:45:32;;;;;;;6.22;2.30;;;21.60;89.10;;;;;;5052052;28;20049;-69
2023/07/17 07:47:58;;;;;;;3.70;1.92;;;21.60;89.10;;;;;;5052091;28;20036;-68
2023/07/17 07:50:24;;;;;;;7.35;2.53;;;21.80;88.70;;;;;;5052744;28;20150;-72
2023/07/17 07:52:50;;;;;;;7.43;2.50;;;21.80;88.80;;;;;;5052617;28;20488;-72
2023/07/17 07:55:15;;;;;;;4.38;2.40;;;22.00;89.20;;;;;;5050745;28;20033;-71
2023/07/17 07:57:41;;;;;;;8.60;2.55;;;22.10;88.70;;;;;;5051513;28;20021;-70
2023/07/17 08:00:07;;;;;;;4.95;1.90;;;22.40;88.60;;;;;;5051759;28;20029;-76
2023/07/17 08:02:33;;;;;;;3.20;1.90;;;22.50;87.30;;;;;;5052199;28;20379;-75
2023/07/17 08:04:59;;;;;;;6.65;2.17;;;22.60;86.60;;;;;;5052088;28;20037;-74
2023/07/17 08:07:24;;;;;;;6.35;1.90;;;22.60;85.40;;;;;;5050381;28;20029;-69
2023/07/17 08:09:50;;;;;;;3.63;1.75;;;22.80;83.10;;;;;;5051723;28;20112;-68
2023/07/17 08:12:16;;;;;;;4.90;2.00;;;22.90;82.60;;;;;;5051269;28;20455;-69
2023/07/17 08:14:41;;;;;;;2.55;1.55;;;23.00;82.10;;;;;;5050442;28;20036;-69
2023/07/17 08:17:07;;;;;;;6.60;2.85;;;23.20;81.60;;;;;;5050947;28;20047;-71
2023/07/17 08:19:32;;;;;;;6.78;2.17;;;23.30;80.90;;;;;;5050510;28;20025;-73
2023/07/17 08:21:58;;;;;;;5.15;1.98;;;23.50;80.80;;;;;;5051610;28;20108;-72
2023/07/17 08:24:24;;;;;;;3.25;1.85;;;23.50;78.00;;;;;;5051601;28;20098;-72
2023/07/17 08:26:49;;;;;;;3.97;1.80;;;23.40;77.30;;;;;;5051235;28;20013;-73
2023/07/17 08:29:15;;;;;;;4.57;1.80;;;23.40;78.30;;;;;;5051673;28;20845;-70
2023/07/17 08:31:41;;;;;;;6.43;2.03;;;23.80;77.40;;;;;;5051436;28;20463;-70
2023/07/17 08:34:06;;;;;;;4.43;2.03;;;24.40;76.10;;;;;;5051049;28;20041;-69
2023/07/17 08:36:33;;;;;;;5.68;1.80;;;24.90;74.60;;;;;;5051084;28;20037;-69
2023/07/17 08:38:59;;;;;;;3.75;1.85;;;25.20;73.30;;;;;;5051215;28;20059;-69
2023/07/17 08:41:25;;;;;;;4.53;1.67;;;25.90;72.50;;;;;;5051452;28;20482;-70
2023/07/17 08:43:51;;;;;;;6.43;2.00;;;26.70;73.20;;;;;;5051498;28;20029;-70
2023/07/17 08:46:18;;;;;;;3.63;1.73;;;26.80;69.50;;;;;;5051111;28;20033;-71
2023/07/17 08:48:44;;;;;;;6.07;2.40;;;27.30;67.30;;;;;;5050997;28;20036;-70
2023/07/17 08:51:14;;;;;;;6.28;2.17;;;27.10;66.20;;;;;;5051082;28;20029;-70
2023/07/17 08:53:43;;;;;;;3.55;2.10;;;26.70;67.20;;;;;;5051310;28;20032;-70
2023/07/17 08:56:11;;;;;;;4.57;2.00;;;26.70;67.10;;;;;;5051146;28;20025;-72
2023/07/17 08:58:37;;;;;;;4.22;1.85;;;26.60;67.50;;;;;;5050984;28;20025;-72
2023/07/17 09:01:03;;;;;;;4.57;2.00;;;26.70;67.20;;;;;;5050949;28;20032;-72
2023/07/17 09:03:32;;;;;;;6.03;2.00;;;26.60;66.60;;;;;;5050940;28;20478;-70
2023/07/17 09:05:58;;;;;;;8.23;1.73;;;26.90;66.40;;;;;;5051096;28;20363;-71
2023/07/17 09:08:24;;;;;;;5.57;2.22;;;27.40;64.90;;;;;;5051278;28;20518;-70
2023/07/17 09:11:07;;;;;;;3.83;1.67;;;28.10;63.90;;;;;;5050520;28;20094;-70
2023/07/17 09:13:41;;;;;;;7.13;1.98;;;28.30;61.50;;;;;;5049593;28;20348;-69
2023/07/17 09:16:24;;;;;;;5.80;2.78;;;28.60;61.70;;;;;;5050836;28;20094;-70
2023/07/17 09:18:51;;;;;;;7.40;2.33;;;28.40;61.50;;;;;;5050325;28;20029;-70
2023/07/17 09:21:19;;;;;;;5.35;1.90;;;28.70;60.20;;;;;;5054890;28;20563;-72
2023/07/17 09:23:46;;;;;;;6.65;1.98;;;28.90;59.40;;;;;;5054544;28;20442;-72
2023/07/17 09:26:17;;;;;;;10.75;2.53;;;29.50;59.60;;;;;;5054998;28;20044;-69
2023/07/17 09:28:56;;;;;;;5.38;2.20;;;29.40;57.40;;;;;;5053551;28;20029;-71
2023/07/17 09:31:25;;;;;;;4.93;2.10;;;29.40;58.20;;;;;;5054770;28;20180;-72
2023/07/17 09:33:52;;;;;;;5.25;2.20;;;29.60;56.00;;;;;;5054535;28;20052;-72
2023/07/17 09:36:18;;;;;;;7.72;2.30;;;29.10;56.20;;;;;;5054439;28;20186;-72
2023/07/17 09:38:43;;;;;;;3.70;1.75;;;28.80;55.80;;;;;;5054852;28;20112;-72
2023/07/17 09:41:20;;;;;;;3.58;2.08;;;28.40;57.20;;;;;;5053499;28;20179;-70
2023/07/17 09:44:05;;;;;;;6.93;2.20;;;27.60;58.30;;;;;;5054500;28;20112;-73
2023/07/17 09:46:33;;;;;;;5.30;2.33;;;26.90;58.80;;;;;;5053357;28;20064;-69
2023/07/17 09:48:59;;;;;;;4.53;2.00;;;26.70;59.10;;;;;;5054559;28;20613;-70
2023/07/17 09:51:25;;;;;;;4.38;2.05;;;27.00;59.00;;;;;;5054354;28;20479;-70
2023/07/17 09:53:51;;;;;;;5.38;2.22;;;26.90;59.50;;;;;;5054060;28;20132;-71
2023/07/17 09:56:18;;;;;;;3.80;2.17;;;26.80;59.80;;;;;;5054278;28;20061;-71
2023/07/17 09:58:46;;;;;;;3.78;2.17;;;27.20;59.00;;;;;;5054552;28;20036;-68
2023/07/17 10:01:20;;;;;;;7.60;4.43;;;26.90;58.20;;;;;;5054103;28;20025;-69
2023/07/17 10:03:50;;;;;;;5.15;2.30;;;26.80;58.20;;;;;;5054115;28;20025;-68
2023/07/17 10:06:18;;;;;;;4.03;2.38;;;26.60;59.00;;;;;;5054174;28;20025;-69
2023/07/17 10:08:46;;;;;;;6.15;2.13;;;26.70;59.30;;;;;;5054203;28;20102;-71
2023/07/17 10:11:14;;;;;;;4.68;2.55;;;26.80;58.80;;;;;;5054248;28;20025;-72
2023/07/17 10:13:40;;;;;;;4.53;2.45;;;26.90;59.00;;;;;;5054080;28;20459;-71
2023/07/17 10:16:07;;;;;;;4.55;2.42;;;27.10;58.30;;;;;;5053849;28;20098;-71
2023/07/17 10:18:32;;;;;;;6.05;2.60;;;26.90;57.90;;;;;;5054063;28;20116;-69
2023/07/17 10:21:00;;;;;;;4.00;2.63;;;26.70;57.70;;;;;;5053613;28;20120;-69
2023/07/17 10:23:27;;;;;;;4.93;2.22;;;26.70;57.40;;;;;;5054249;28;20024;-69
2023/07/17 10:26:09;;;;;;;7.60;2.08;;;26.70;57.20;;;;;;5053477;28;20032;-71
2023/07/17 10:28:39;;;;;;;7.07;2.60;;;26.20;57.40;;;;;;5053011;28;20029;-71
2023/07/17 10:31:20;;;;;;;3.97;2.30;;;26.00;58.10;;;;;;5051711;28;20321;-70
2023/07/17 10:33:51;;;;;;;6.40;2.50;;;25.80;57.90;;;;;;5049168;28;20367;-70
2023/07/17 10:36:17;;;;;;;5.72;2.40;;;25.70;58.30;;;;;;5053550;28;20095;-71
2023/07/17 10:38:50;;;;;;;8.05;2.70;;;25.80;58.20;;;;;;5053467;28;20087;-70
2023/07/17 10:41:15;;;;;;;4.28;2.40;;;25.90;58.20;;;;;;5053811;28;20100;-71
2023/07/17 10:43:51;;;;;;;7.25;3.10;;;26.00;58.00;;;;;;5053418;28;20140;-70
2023/07/17 10:46:17;;;;;;;3.75;2.15;;;25.90;58.20;;;;;;5053179;28;20467;-71
2023/07/17 10:48:43;;;;;;;8.25;3.08;;;25.80;58.40;;;;;;5053048;28;20383;-69
2023/07/17 10:51:08;;;;;;;5.03;2.35;;;25.80;58.50;;;;;;5053423;28;20029;-70
2023/07/17 10:53:34;;;;;;;4.90;2.30;;;25.80;59.00;;;;;;5052374;28;20029;-73
2023/07/17 10:56:00;;;;;;;8.82;2.83;;;25.90;58.80;;;;;;5053422;28;20534;-72
2023/07/17 10:58:25;;;;;;;6.25;2.92;;;26.00;58.50;;;;;;5053020;28;20025;-70
2023/07/17 11:00:51;;;;;;;5.28;2.53;;;25.90;58.70;;;;;;5052930;28;20037;-70
2023/07/17 11:03:20;;;;;;;5.45;2.40;;;26.10;58.50;;;;;;5052605;28;20029;-70
2023/07/17 11:05:46;;;;;;;7.22;2.75;;;26.10;58.30;;;;;;5052898;28;20047;-71
2023/07/17 11:08:12;;;;;;;10.45;2.70;;;25.90;59.20;;;;;;5053420;28;20028;-69
2023/07/17 11:10:44;;;;;;;6.32;2.97;;;25.60;60.00;;;;;;5052997;28;20094;-70
2023/07/17 11:13:10;;;;;;;5.95;2.95;;;25.40;60.90;;;;;;5052981;28;20056;-71
2023/07/17 11:15:37;;;;;;;6.57;2.88;;;25.20;61.20;;;;;;5052738;28;20049;-74
2023/07/17 11:18:04;;;;;;;5.53;2.80;;;25.20;61.30;;;;;;5051207;28;20033;-73
2023/07/17 11:20:31;;;;;;;3.95;2.30;;;25.40;61.10;;;;;;5053052;28;20051;-73
2023/07/17 11:22:57;;;;;;;9.93;2.90;;;25.50;60.80;;;;;;5052509;28;20037;-75
2023/07/17 11:25:28;;;;;;;5.45;3.13;;;25.40;60.70;;;;;;5052860;28;20021;-74
2023/07/17 11:27:56;;;;;;;6.78;3.08;;;25.10;61.30;;;;;;5085140;28;20475;-69
2023/07/17 11:30:32;;;;;;;6.68;2.78;;;25.00;61.50;;;;;;5052621;28;20435;-74
2023/07/17 11:32:57;;;;;;;6.95;3.20;;;25.20;61.60;;;;;;5052342;28;20029;-69
2023/07/17 11:35:44;;;;;;;7.05;3.00;;;24.90;61.60;;;;;;5052483;28;20558;-69
2023/07/17 11:38:14;;;;;;;17.77;3.67;;;24.80;61.60;;;;;;5052429;28;20037;-68
2023/07/17 11:41:08;;;;;;;15.90;9.50;;;24.80;61.70;;;;;;5051674;28;20037;-71
2023/07/17 11:43:37;;;;;;;9.52;5.18;;;25.00;61.90;;;;;;5039185;28;20033;-72
2023/07/17 11:46:07;;;;;;;8.38;3.67;;;24.90;61.40;;;;;;5052202;28;20518;-73
2023/07/17 11:48:37;;;;;;;7.72;3.47;;;24.50;61.90;;;;;;5050771;28;20025;-72
2023/07/17 11:51:05;;;;;;;5.22;2.80;;;24.50;62.40;;;;;;5052043;28;20036;-72
2023/07/17 11:53:35;;;;;;;7.97;3.70;;;24.70;62.00;;;;;;5052257;28;20013;-70
2023/07/17 11:56:02;;;;;;;13.52;5.40;;;24.90;61.30;;;;;;5052814;28;20067;-69
2023/07/17 11:58:30;;;;;;;13.20;7.65;;;25.20;61.20;;;;;;5051792;28;20407;-69
2023/07/17 12:00:57;;;;;;;10.48;3.55;;;25.20;60.60;;;;;;5051899;28;20383;-69
2023/07/17 12:03:24;;;;;;;8.18;3.40;;;25.30;60.80;;;;;;5051559;28;20490;-71
2023/07/17 12:05:49;;;;;;;6.07;3.88;;;25.20;60.80;;;;;;5051607;28;20033;-69
2023/07/17 12:08:15;;;;;;;7.60;3.58;;;25.00;61.20;;;;;;5052058;28;20147;-70
2023/07/17 12:10:42;;;;;;;7.47;3.35;;;24.90;61.60;;;;;;5051800;28;20037;-69
2023/07/17 12:13:08;;;;;;;10.15;3.47;;;24.80;60.90;;;;;;5051616;28;20040;-70
2023/07/17 12:15:35;;;;;;;9.98;3.63;;;24.60;60.70;;;;;;5051428;28;20262;-70
2023/07/17 12:18:00;;;;;;;8.88;3.50;;;24.70;61.20;;;;;;5050202;28;20029;-71
2023/07/17 12:20:29;;;;;;;4.95;3.10;;;24.50;60.40;;;;;;5052138;28;20029;-69
2023/07/17 12:22:56;;;;;;;8.52;4.05;;;24.40;60.20;;;;;;5050337;28;20029;-69
2023/07/17 12:25:22;;;;;;;8.07;3.78;;;24.60;60.60;;;;;;5051403;28;20091;-69
2023/07/17 12:27:48;;;;;;;8.77;3.05;;;24.60;60.60;;;;;;5051363;28;20551;-70
2023/07/17 12:30:16;;;;;;;6.07;3.08;;;24.70;60.60;;;;;;5051175;28;20490;-68
2023/07/17 12:32:42;;;;;;;8.30;2.63;;;24.80;59.10;;;;;;5051107;28;20100;-69
2023/07/17 12:35:09;;;;;;;5.75;2.55;;;24.90;58.90;;;;;;5051348;28;20044;-69
2023/07/17 12:37:35;;;;;;;4.25;2.97;;;24.90;58.90;;;;;;5051278;28;20510;-69
2023/07/17 12:40:01;;;;;;;6.13;3.03;;;25.00;58.80;;;;;;5051168;28;20029;-72
2023/07/17 12:42:27;;;;;;;5.35;2.92;;;25.20;59.10;;;;;;5050994;28;20032;-70